createdAt,value
2018-07-27T00:00:04.815Z,34.40
2018-07-27T00:02:37.586Z,34.30
2018-07-27T00:05:10.760Z,34.60
2018-07-27T00:07:43.742Z,34.30
2018-07-27T00:10:20.559Z,34.30
2018-07-27T00:12:53.356Z,34.20
2018-07-27T00:15:26.177Z,34.10
2018-07-27T00:17:59.076Z,34.30
2018-07-27T00:20:32.086Z,34.30
2018-07-27T00:23:04.961Z,34.30
2018-07-27T00:25:37.747Z,34.20
2018-07-27T00:28:10.578Z,34.50
2018-07-27T00:30:43.425Z,34.60
2018-07-27T00:33:16.293Z,34.70
2018-07-27T00:35:49.094Z,34.40
2018-07-27T00:38:22.742Z,34.00
2018-07-27T00:40:56.150Z,34.00
2018-07-27T00:43:28.969Z,34.10
2018-07-27T00:46:01.850Z,34.30
2018-07-27T00:48:34.679Z,34.30
2018-07-27T00:51:07.551Z,34.10
2018-07-27T00:53:40.654Z,34.20
2018-07-27T00:56:16.476Z,33.80
2018-07-27T00:58:49.293Z,34.10
2018-07-27T01:01:22.125Z,34.30
2018-07-27T01:03:54.947Z,34.50
2018-07-27T01:06:27.763Z,34.90
2018-07-27T01:09:00.664Z,35.00
2018-07-27T01:11:33.455Z,35.00
2018-07-27T01:14:06.536Z,35.50
2018-07-27T01:16:39.367Z,36.10
2018-07-27T01:19:12.201Z,36.70
2018-07-27T01:21:45.222Z,37.20
2018-07-27T01:24:18.044Z,37.30
2018-07-27T01:26:50.859Z,37.00
2018-07-27T01:29:23.760Z,36.60
2018-07-27T01:31:56.615Z,36.50
2018-07-27T01:34:29.525Z,37.00
2018-07-27T01:37:02.433Z,36.70
2018-07-27T01:39:35.533Z,36.90
2018-07-27T01:42:08.330Z,37.20
2018-07-27T01:44:41.847Z,37.20
2018-07-27T01:47:14.836Z,36.70
2018-07-27T01:49:47.911Z,36.90
2018-07-27T01:52:20.714Z,36.50
2018-07-27T01:54:53.648Z,36.90
2018-07-27T01:57:26.428Z,37.50
2018-07-27T01:59:59.303Z,37.80
2018-07-27T02:02:32.171Z,37.20
2018-07-27T02:05:06.736Z,36.80
2018-07-27T02:07:39.507Z,36.70
2018-07-27T02:10:12.443Z,36.90
2018-07-27T02:12:45.435Z,37.00
2018-07-27T02:15:18.287Z,37.20
2018-07-27T02:17:51.101Z,37.00
2018-07-27T02:20:23.898Z,35.90
2018-07-27T02:22:56.701Z,34.90
2018-07-27T02:25:29.464Z,33.90
2018-07-27T02:28:02.328Z,33.00
2018-07-27T02:30:35.096Z,32.60
2018-07-27T02:33:08.048Z,32.20
2018-07-27T02:35:41.506Z,31.80
2018-07-27T02:38:16.548Z,31.50
2018-07-27T02:40:50.719Z,31.20
2018-07-27T02:43:23.732Z,31.00
2018-07-27T02:45:58.602Z,30.70
2018-07-27T02:48:31.848Z,30.40
2018-07-27T02:51:06.760Z,30.20
2018-07-27T02:53:39.978Z,30.00
2018-07-27T02:56:13.067Z,29.90
2018-07-27T02:58:46.396Z,29.70
2018-07-27T05:27:25.879Z,23.90
2018-07-27T05:29:59.424Z,23.80
2018-07-27T05:32:33.840Z,23.70
2018-07-27T05:35:06.942Z,23.70
2018-07-27T05:37:39.877Z,23.60
2018-07-27T05:40:12.913Z,23.60
2018-07-27T05:42:45.828Z,23.60
2018-07-27T05:45:18.839Z,23.50
2018-07-27T05:47:51.973Z,23.50
2018-07-27T05:50:24.971Z,23.40
2018-07-27T05:52:58.107Z,23.30
2018-07-27T05:55:31.058Z,23.10
2018-07-27T05:58:04.855Z,23.10
2018-07-27T06:00:37.942Z,22.90
2018-07-27T06:03:10.977Z,22.90
2018-07-27T06:05:44.012Z,22.80
2018-07-27T06:08:16.948Z,22.80
2018-07-27T06:10:49.921Z,22.80
2018-07-27T06:13:22.950Z,22.80
2018-07-27T06:15:55.926Z,22.80
2018-07-27T06:18:28.886Z,22.70
2018-07-27T06:21:01.826Z,22.60
2018-07-27T06:23:34.869Z,22.60
2018-07-27T06:26:08.672Z,22.50
2018-07-27T06:28:41.574Z,22.40
2018-07-27T06:31:14.537Z,22.30
2018-07-27T06:33:47.734Z,22.20
2018-07-27T06:36:20.625Z,22.20
2018-07-27T06:38:55.343Z,22.10
2018-07-27T06:41:28.322Z,22.10
2018-07-27T06:44:03.118Z,22.10
2018-07-27T06:46:36.019Z,22.00
2018-07-27T06:49:09.054Z,21.90
2018-07-27T06:51:42.513Z,21.80
2018-07-27T06:54:16.015Z,21.70
2018-07-27T06:56:48.936Z,21.70
2018-07-27T06:59:21.974Z,21.70
2018-07-27T07:01:54.959Z,21.60
2018-07-27T07:04:27.872Z,21.50
2018-07-27T07:07:01.725Z,21.50
2018-07-27T07:09:37.657Z,21.50
2018-07-27T07:12:10.508Z,21.40
2018-07-27T07:14:43.416Z,21.40
2018-07-27T07:17:16.293Z,21.30
2018-07-27T07:19:49.165Z,21.20
2018-07-27T07:22:22.089Z,21.20
2018-07-27T07:24:54.969Z,21.20
2018-07-27T07:27:27.884Z,21.10
2018-07-27T07:30:00.791Z,21.00
2018-07-27T07:32:33.808Z,21.00
2018-07-27T07:35:06.627Z,20.80
2018-07-27T07:37:40.127Z,20.80
2018-07-27T07:40:13.009Z,20.80
2018-07-27T07:42:45.976Z,20.70
2018-07-27T14:36:39.450Z,17.20
2018-07-27T14:39:14.770Z,17.00
2018-07-27T14:41:48.087Z,17.10
2018-07-27T14:44:20.978Z,17.10
2018-07-27T14:46:53.827Z,17.20
2018-07-27T14:49:26.649Z,17.20
2018-07-27T14:51:59.468Z,17.40
2018-07-27T14:54:32.298Z,17.60
2018-07-27T14:57:05.980Z,17.80
2018-07-27T14:59:40.332Z,18.10
2018-07-27T15:02:13.172Z,18.40
2018-07-27T15:04:46.796Z,18.70
2018-07-27T15:07:19.741Z,18.70
2018-07-27T15:09:52.629Z,18.50
2018-07-27T15:12:25.488Z,18.70
2018-07-27T15:15:00.112Z,19.10
2018-07-27T15:17:32.909Z,19.60
2018-07-27T15:20:06.449Z,20.10
2018-07-27T15:22:39.408Z,20.00
2018-07-27T15:25:12.796Z,20.10
2018-07-27T15:27:46.128Z,20.20
2018-07-27T15:30:18.994Z,19.80
2018-07-27T15:32:51.790Z,19.80
2018-07-27T15:35:24.663Z,19.60
2018-07-27T15:38:57.633Z,19.40
2018-07-27T15:41:31.958Z,19.20
2018-07-27T15:44:06.038Z,18.80
2018-07-27T15:46:40.197Z,18.80
2018-07-27T15:49:19.127Z,18.90
2018-07-27T15:51:55.197Z,19.00
2018-07-27T15:54:28.040Z,19.20
2018-07-27T15:57:00.824Z,19.40
2018-07-27T15:59:35.096Z,19.60
2018-07-27T16:02:07.913Z,19.70
2018-07-27T16:04:42.393Z,19.80
2018-07-27T16:07:16.731Z,19.90
2018-07-27T16:09:50.007Z,20.00
2018-07-27T16:12:23.062Z,20.00
2018-07-27T16:14:58.509Z,19.80
2018-07-27T16:17:35.022Z,19.80
2018-07-27T16:20:09.639Z,20.00
2018-07-27T16:22:43.104Z,19.80
2018-07-27T16:25:18.026Z,19.80
2018-07-27T16:27:51.696Z,19.80
2018-07-27T16:30:24.581Z,20.00
2018-07-27T16:32:57.488Z,20.20
2018-07-27T16:35:33.065Z,20.30
2018-07-27T16:38:06.527Z,20.40
2018-07-27T16:40:40.995Z,20.40
2018-07-27T16:43:16.467Z,20.40
2018-07-27T16:45:50.910Z,20.10
2018-07-27T16:48:25.989Z,20.00
2018-07-27T16:50:59.818Z,20.20
2018-07-27T16:53:32.723Z,20.20
2018-07-27T16:56:06.172Z,20.40
2018-07-27T16:58:39.240Z,20.50
2018-07-27T17:01:12.751Z,20.60
2018-07-27T17:03:47.226Z,20.70
2018-07-27T17:06:20.145Z,20.70
2018-07-27T17:08:53.844Z,20.70
2018-07-27T17:11:29.529Z,20.80
2018-07-27T17:14:03.773Z,20.80
2018-07-27T17:16:36.597Z,21.00
2018-07-27T17:19:11.664Z,21.20
2018-07-27T17:21:45.403Z,21.20
2018-07-27T17:24:20.092Z,21.40
2018-07-27T17:26:54.498Z,21.40
2018-07-27T17:29:27.987Z,21.60
2018-07-27T17:32:01.310Z,21.60
2018-07-27T17:34:36.867Z,21.70
2018-07-27T17:37:10.461Z,21.70
2018-07-27T17:39:45.614Z,21.60
2018-07-27T17:42:20.673Z,21.60
2018-07-27T17:44:55.036Z,21.60
2018-07-27T17:47:28.016Z,21.70
2018-07-27T17:50:00.848Z,21.80
2018-07-27T17:52:33.723Z,22.00
2018-07-27T17:55:07.282Z,22.00
2018-07-27T17:57:40.165Z,22.20
2018-07-27T18:00:15.106Z,22.30
2018-07-27T18:02:51.147Z,22.20
2018-07-27T18:05:24.114Z,22.20
2018-07-27T18:07:58.655Z,22.30
2018-07-27T18:10:32.340Z,22.50
2018-07-27T18:13:06.208Z,22.40
2018-07-27T18:15:40.475Z,22.50
2018-07-27T18:18:14.349Z,22.60
2018-07-27T18:23:01.535Z,22.80
2018-07-27T18:25:37.606Z,22.50
2018-07-27T18:28:11.170Z,22.70
2018-07-27T18:30:44.839Z,22.70
2018-07-27T18:33:20.456Z,22.70
2018-07-27T18:35:54.451Z,22.90
2018-07-27T18:38:27.249Z,23.00
2018-07-27T18:41:00.855Z,23.20
2018-07-27T18:43:34.618Z,23.10
2018-07-27T18:46:08.460Z,23.30
2018-07-27T18:48:42.049Z,23.40
2018-07-27T18:51:14.893Z,23.60
2018-07-27T18:53:48.162Z,23.80
2018-07-27T18:56:21.196Z,23.90
2018-07-27T18:58:54.937Z,23.90
2018-07-27T19:01:29.135Z,23.60
2018-07-27T19:04:02.853Z,23.60
2018-07-27T19:06:37.173Z,23.70
2018-07-27T19:09:15.320Z,23.30
2018-07-27T19:11:48.076Z,23.40
2018-07-27T19:14:22.293Z,23.50
2018-07-27T19:16:57.734Z,23.50
2018-07-27T19:19:31.215Z,23.40
2018-07-27T19:22:06.501Z,23.40
2018-07-27T19:24:44.363Z,23.60
2018-07-27T19:27:17.914Z,23.50
2018-07-27T19:29:51.489Z,23.60
2018-07-27T19:32:25.331Z,23.70
2018-07-27T19:35:00.363Z,23.90
2018-07-27T19:37:39.448Z,24.20
2018-07-27T19:40:12.268Z,24.50
2018-07-27T19:42:46.656Z,24.60
2018-07-27T19:45:19.541Z,24.90
2018-07-27T19:47:53.518Z,24.50
2018-07-27T19:50:27.980Z,24.30
2018-07-27T19:53:05.233Z,24.60
2018-07-27T19:55:38.205Z,24.50
2018-07-27T19:58:13.479Z,24.70
2018-07-27T20:00:48.140Z,24.80
2018-07-27T20:03:22.479Z,24.60
2018-07-27T20:05:56.711Z,24.60
2018-07-27T20:08:30.269Z,24.90
2018-07-27T20:11:07.538Z,24.90
2018-07-27T20:13:41.508Z,25.20
2018-07-27T20:16:14.324Z,25.40
2018-07-27T20:18:49.981Z,25.50
2018-07-27T20:21:25.166Z,25.50
2018-07-27T20:24:04.190Z,25.60
2018-07-27T20:26:43.222Z,25.60
2018-07-27T20:29:16.733Z,25.80
2018-07-27T20:31:58.569Z,26.00
2018-07-27T20:34:33.228Z,25.70
2018-07-27T20:37:06.690Z,25.80
2018-07-27T20:39:41.340Z,26.00
2018-07-27T20:42:15.841Z,26.30
2018-07-27T20:44:50.205Z,26.30
2018-07-27T20:47:25.197Z,26.30
2018-07-27T20:50:01.014Z,26.30
2018-07-27T21:12:02.832Z,26.90
2018-07-27T21:14:35.732Z,27.10
2018-07-27T21:17:16.513Z,27.10
2018-07-27T21:19:49.994Z,26.90
2018-07-27T21:22:26.482Z,26.90
2018-07-27T21:25:07.523Z,27.10
2018-07-27T21:27:43.020Z,27.00
2018-07-27T21:30:16.840Z,27.10
2018-07-27T21:32:53.867Z,27.40
2018-07-27T21:35:29.335Z,27.50
2018-07-27T21:38:02.446Z,27.80
2018-07-27T21:40:35.421Z,28.00
2018-07-27T21:43:08.504Z,28.10
2018-07-27T21:45:43.644Z,27.90
2018-07-27T21:48:25.224Z,27.90
2018-07-27T21:51:19.759Z,28.20
2018-07-27T21:54:11.028Z,28.30
2018-07-27T21:56:47.541Z,28.30
2018-07-27T21:59:21.177Z,28.20
2018-07-27T22:01:55.676Z,28.40
2018-07-27T22:04:30.851Z,28.60
2018-07-27T22:07:06.875Z,28.60
2018-07-27T22:09:41.264Z,28.80
2018-07-27T22:12:17.847Z,29.10
2018-07-27T22:14:59.634Z,29.20
2018-07-27T22:17:36.348Z,29.30
2018-07-27T22:20:09.756Z,29.00
2018-07-27T22:22:42.573Z,29.20
2018-07-27T22:26:08.996Z,29.30
2018-07-27T22:28:42.924Z,29.50
2018-07-27T22:31:18.118Z,29.70
2018-07-27T22:33:51.729Z,29.90
2018-07-27T22:36:25.102Z,29.70
2018-07-27T22:38:58.237Z,29.80
2018-07-27T22:41:31.604Z,30.00
2018-07-27T22:44:04.722Z,29.90
2018-07-27T22:46:37.990Z,29.80
2018-07-27T22:49:10.930Z,29.80
2018-07-27T22:51:44.048Z,30.20
2018-07-27T22:54:17.098Z,30.20
2018-07-27T22:57:09.446Z,30.20
2018-07-27T23:06:58.538Z,30.60
2018-07-27T23:09:32.190Z,30.50
2018-07-27T23:12:05.587Z,30.50
2018-07-27T23:14:38.740Z,30.70
2018-07-27T23:17:12.017Z,30.80
2018-07-27T23:19:45.499Z,31.10
2018-07-27T23:22:21.241Z,31.30
2018-07-27T23:28:00.416Z,31.30
2018-07-27T23:30:45.143Z,31.40
2018-07-27T23:33:28.084Z,31.70
2018-07-27T23:36:10.025Z,31.60
2018-07-27T23:38:43.314Z,31.80
2018-07-27T23:41:20.039Z,31.90
2018-07-27T23:43:52.901Z,31.90
2018-07-27T23:46:26.356Z,31.90
2018-07-27T23:48:59.412Z,31.80
2018-07-27T23:51:32.310Z,31.60
2018-07-27T23:54:05.133Z,31.30
2018-07-27T23:56:38.584Z,31.50
2018-07-27T23:59:12.213Z,31.10
